createdAt,value
2019-06-27T00:01:08.469Z,14.37
2019-06-27T00:03:37.587Z,18.73
2019-06-27T00:06:07.882Z,16.50
2019-06-27T00:08:39.617Z,20.87
2019-06-27T00:11:08.504Z,16.33
2019-06-27T00:13:37.608Z,16.97
2019-06-27T00:16:11.251Z,18.60
2019-06-27T00:18:40.266Z,20.87
2019-06-27T00:21:09.410Z,21.17
2019-06-27T00:23:38.544Z,16.93
2019-06-27T00:26:07.584Z,17.13
2019-06-27T00:28:39.816Z,15.40
2019-06-27T00:31:12.227Z,15.77
2019-06-27T00:33:41.211Z,18.33
2019-06-27T00:36:13.393Z,16.83
2019-06-27T00:38:42.312Z,18.67
2019-06-27T00:41:12.749Z,15.80
2019-06-27T00:43:41.725Z,15.87
2019-06-27T00:46:10.845Z,18.97
2019-06-27T00:48:43.219Z,14.73
2019-06-27T00:51:16.913Z,15.23
2019-06-27T00:53:45.861Z,14.77
2019-06-27T00:56:17.991Z,15.63
2019-06-27T00:58:46.929Z,13.63
2019-06-27T01:01:17.362Z,13.83
2019-06-27T01:03:46.414Z,14.33
2019-06-27T01:06:17.991Z,13.53
2019-06-27T01:08:46.965Z,14.27
2019-06-27T01:11:15.941Z,12.43
2019-06-27T01:13:44.966Z,13.20
2019-06-27T01:16:15.343Z,14.70
2019-06-27T01:18:44.367Z,14.50
2019-06-27T01:21:13.405Z,12.70
2019-06-27T01:23:45.069Z,15.20
2019-06-27T01:26:15.629Z,13.53
2019-06-27T01:28:44.646Z,16.03
2019-06-27T01:31:13.469Z,12.33
2019-06-27T01:33:44.094Z,12.20
2019-06-27T01:36:14.344Z,12.60
2019-06-27T01:38:43.405Z,12.47
2019-06-27T01:41:12.397Z,12.27
2019-06-27T01:43:41.374Z,15.73
2019-06-27T01:46:14.464Z,12.33
2019-06-27T01:48:43.459Z,10.07
2019-06-27T01:51:12.453Z,10.83
2019-06-27T01:53:42.769Z,11.63
2019-06-27T01:56:12.970Z,19.63
2019-06-27T01:58:41.994Z,13.83
2019-06-27T02:01:14.144Z,13.60
2019-06-27T02:03:47.048Z,13.30
2019-06-27T02:06:16.109Z,9.47
2019-06-27T02:08:45.116Z,9.40
2019-06-27T02:11:16.468Z,9.50
2019-06-27T02:13:48.686Z,10.17
2019-06-27T02:16:20.952Z,10.03
2019-06-27T02:18:49.853Z,8.10
2019-06-27T02:21:19.036Z,8.30
2019-06-27T02:23:51.553Z,10.20
2019-06-27T02:26:24.794Z,9.33
2019-06-27T02:28:55.064Z,8.73
2019-06-27T02:31:24.139Z,9.03
2019-06-27T02:33:53.204Z,9.33
2019-06-27T02:36:22.193Z,9.10
2019-06-27T02:38:51.082Z,14.40
2019-06-27T02:41:23.323Z,10.17
2019-06-27T02:43:52.246Z,12.13
2019-06-27T02:46:21.359Z,12.10
2019-06-27T02:48:54.593Z,8.47
2019-06-27T02:51:24.824Z,11.97
2019-06-27T02:53:53.725Z,10.17
2019-06-27T02:56:22.641Z,8.63
2019-06-27T02:58:51.739Z,9.07
2019-06-27T03:01:25.061Z,10.97
2019-06-27T03:03:55.482Z,11.63
2019-06-27T03:06:24.730Z,10.87
2019-06-27T03:08:55.746Z,10.90
2019-06-27T03:11:24.527Z,14.83
2019-06-27T03:13:56.956Z,10.83
2019-06-27T03:16:25.904Z,14.53
2019-06-27T03:18:54.910Z,15.67
2019-06-27T03:21:24.058Z,13.23
2019-06-27T03:23:53.638Z,12.73
2019-06-27T03:26:23.780Z,13.57
2019-06-27T03:28:54.249Z,14.87
2019-06-27T03:31:23.402Z,13.97
2019-06-27T03:33:52.397Z,10.83
2019-06-27T03:36:21.241Z,13.03
2019-06-27T03:38:50.226Z,12.67
2019-06-27T03:41:19.175Z,13.60
2019-06-27T03:43:50.987Z,15.23
2019-06-27T03:46:22.435Z,12.83
2019-06-27T03:48:52.631Z,13.33
2019-06-27T03:51:22.871Z,16.27
2019-06-27T03:53:57.120Z,11.20
2019-06-27T03:56:27.150Z,11.27
2019-06-27T03:59:11.277Z,8.50
2019-06-27T04:01:29.792Z,11.07
2019-06-27T04:04:01.319Z,8.57
2019-06-27T04:06:30.366Z,9.23
2019-06-27T04:08:59.402Z,9.03
2019-06-27T04:11:28.379Z,10.13
2019-06-27T04:13:57.878Z,9.23
2019-06-27T04:16:26.787Z,10.13
2019-06-27T04:18:55.722Z,5.63
2019-06-27T04:21:24.650Z,8.53
2019-06-27T04:23:56.671Z,7.93
2019-06-27T04:26:25.584Z,5.83
2019-06-27T04:28:54.913Z,4.70
2019-06-27T04:31:23.753Z,6.70
2019-06-27T04:33:52.741Z,6.47
2019-06-27T04:36:22.987Z,5.90
2019-06-27T04:38:51.913Z,7.97
2019-06-27T04:41:20.988Z,8.73
2019-06-27T04:43:50.070Z,5.70
2019-06-27T04:46:22.393Z,5.83
2019-06-27T04:48:54.524Z,8.60
2019-06-27T04:51:23.626Z,5.67
2019-06-27T04:53:52.512Z,7.67
2019-06-27T04:56:21.512Z,3.37
2019-06-27T04:58:50.447Z,5.57
2019-06-27T05:01:19.364Z,4.90
2019-06-27T05:03:48.267Z,5.80
2019-06-27T05:06:17.390Z,4.67
2019-06-27T05:08:46.332Z,7.90
2019-06-27T05:11:15.274Z,8.17
2019-06-27T05:13:44.208Z,5.40
2019-06-27T05:16:14.608Z,7.50
2019-06-27T05:18:44.021Z,7.90
2019-06-27T05:21:13.131Z,15.83
2019-06-27T05:23:42.276Z,7.93
2019-06-27T05:26:11.311Z,11.33
2019-06-27T05:28:40.297Z,8.13
2019-06-27T05:31:13.987Z,10.50
2019-06-27T05:33:44.341Z,6.27
2019-06-27T05:36:13.226Z,6.87
2019-06-27T05:38:44.824Z,7.83
2019-06-27T05:41:13.734Z,9.43
2019-06-27T05:43:42.837Z,8.73
2019-06-27T05:46:13.407Z,5.07
2019-06-27T05:48:43.878Z,7.37
2019-06-27T05:51:16.338Z,5.73
2019-06-27T05:53:48.537Z,6.40
2019-06-27T05:56:17.579Z,7.27
2019-06-27T05:58:46.485Z,8.67
2019-06-27T06:01:15.785Z,5.27
2019-06-27T06:03:44.739Z,3.90
2019-06-27T06:06:14.244Z,6.77
2019-06-27T06:08:43.183Z,4.97
2019-06-27T06:11:15.038Z,10.50
2019-06-27T06:13:44.112Z,5.33
2019-06-27T06:16:15.383Z,8.90
2019-06-27T06:18:44.552Z,8.53
2019-06-27T06:21:13.449Z,13.23
2019-06-27T06:23:42.537Z,11.33
2019-06-27T06:26:11.519Z,9.87
2019-06-27T06:28:41.540Z,8.07
2019-06-27T06:31:17.446Z,9.40
2019-06-27T06:33:46.477Z,10.03
2019-06-27T06:36:15.517Z,9.03
2019-06-27T06:38:45.569Z,10.57
2019-06-27T06:41:16.606Z,7.70
2019-06-27T06:43:46.865Z,11.00
2019-06-27T06:46:15.950Z,13.97
2019-06-27T06:48:45.156Z,13.57
2019-06-27T06:51:14.244Z,11.63
2019-06-27T06:53:43.258Z,9.30
2019-06-27T06:56:13.539Z,8.03
2019-06-27T06:58:45.740Z,11.13
2019-06-27T07:01:14.705Z,8.80
2019-06-27T07:03:50.387Z,10.83
2019-06-27T07:06:21.424Z,10.33
2019-06-27T07:08:55.795Z,10.03
2019-06-27T07:11:24.881Z,11.10
2019-06-27T07:13:53.777Z,10.80
2019-06-27T07:16:22.804Z,11.63
2019-06-27T07:18:51.756Z,7.57
2019-06-27T07:21:20.653Z,8.77
2019-06-27T07:23:50.737Z,8.17
2019-06-27T07:26:22.272Z,7.97
2019-06-27T07:28:50.455Z,8.07
2019-06-27T07:31:19.409Z,10.63
2019-06-27T07:33:51.392Z,7.03
2019-06-27T07:36:20.368Z,10.80
2019-06-27T07:38:49.398Z,9.57
2019-06-27T07:41:18.402Z,8.27
2019-06-27T07:43:47.469Z,6.70
2019-06-27T07:46:25.249Z,7.17
2019-06-27T07:48:47.146Z,9.03
2019-06-27T07:51:16.105Z,10.87
2019-06-27T07:53:48.945Z,8.50
2019-06-27T07:56:17.905Z,8.23
2019-06-27T07:58:47.767Z,7.80
2019-06-27T08:01:33.673Z,8.47
2019-06-27T08:03:47.633Z,7.80
2019-06-27T08:06:19.494Z,9.93
2019-06-27T08:08:50.824Z,6.20
2019-06-27T08:11:31.878Z,8.40
2019-06-27T08:14:00.790Z,8.17
2019-06-27T08:16:41.204Z,8.20
2019-06-27T08:19:10.167Z,7.73
2019-06-27T08:21:42.101Z,8.53
2019-06-27T08:24:11.131Z,8.27
2019-06-27T08:26:41.366Z,7.93
2019-06-27T08:29:10.502Z,6.20
2019-06-27T08:31:51.328Z,8.57
2019-06-27T08:34:14.554Z,7.97
2019-06-27T08:36:45.109Z,11.30
2019-06-27T08:39:16.784Z,7.30
2019-06-27T08:41:48.815Z,3.93
2019-06-27T08:44:27.891Z,6.93
2019-06-27T08:46:56.964Z,5.17
2019-06-27T08:49:29.589Z,7.23
2019-06-27T08:51:59.954Z,12.00
2019-06-27T08:54:33.054Z,9.63
2019-06-27T08:57:03.789Z,3.63
2019-06-27T08:59:32.711Z,9.73
2019-06-27T09:02:08.520Z,4.87
2019-06-27T09:04:32.464Z,5.50
2019-06-27T09:07:01.426Z,6.33
2019-06-27T09:09:33.442Z,5.07
2019-06-27T09:12:02.522Z,6.30
2019-06-27T09:14:31.551Z,6.37
2019-06-27T09:17:03.244Z,7.77
2019-06-27T09:19:32.181Z,6.27
2019-06-27T09:22:01.154Z,8.20
2019-06-27T09:24:30.093Z,6.80
2019-06-27T09:26:59.154Z,4.73
2019-06-27T09:29:28.107Z,6.20
2019-06-27T09:31:58.125Z,6.20
2019-06-27T09:34:28.487Z,5.57
2019-06-27T09:36:59.110Z,5.97
2019-06-27T09:39:28.068Z,6.83
2019-06-27T09:42:00.119Z,6.23
2019-06-27T09:44:29.164Z,4.90
2019-06-27T09:46:58.139Z,5.73
2019-06-27T09:49:27.211Z,5.03
2019-06-27T09:51:58.669Z,6.23
2019-06-27T09:54:30.918Z,5.97
2019-06-27T09:57:00.005Z,4.17
2019-06-27T09:59:29.017Z,5.50
2019-06-27T10:01:58.049Z,5.90
2019-06-27T10:04:30.917Z,8.43
2019-06-27T10:06:59.944Z,9.10
2019-06-27T10:09:29.014Z,4.93
2019-06-27T10:11:58.603Z,7.50
2019-06-27T10:14:27.673Z,5.80
2019-06-27T10:16:58.655Z,5.47
2019-06-27T10:19:27.485Z,7.80
2019-06-27T10:21:56.624Z,3.57
2019-06-27T10:24:25.727Z,5.73
2019-06-27T10:26:54.981Z,6.23
2019-06-27T10:29:23.861Z,3.63
2019-06-27T10:31:54.421Z,4.77
2019-06-27T10:34:23.442Z,4.23
2019-06-27T10:36:52.443Z,8.13
2019-06-27T10:39:21.430Z,5.53
2019-06-27T10:41:50.732Z,3.87
2019-06-27T10:44:19.675Z,5.63
2019-06-27T10:46:52.204Z,6.43
2019-06-27T10:49:22.956Z,5.53
2019-06-27T10:51:51.921Z,4.30
2019-06-27T10:54:20.923Z,11.27
2019-06-27T10:56:57.293Z,4.67
2019-06-27T10:59:26.384Z,4.70
2019-06-27T11:01:57.870Z,5.03
2019-06-27T11:04:30.419Z,6.87
2019-06-27T11:06:59.383Z,3.40
2019-06-27T11:09:29.827Z,6.93
2019-06-27T11:12:00.556Z,5.43
2019-06-27T11:14:29.513Z,8.03
2019-06-27T11:16:58.529Z,10.33
2019-06-27T11:19:27.524Z,6.10
2019-06-27T11:21:57.532Z,5.93
2019-06-27T11:24:30.246Z,10.87
2019-06-27T11:26:59.271Z,11.87
2019-06-27T11:29:29.301Z,12.50
2019-06-27T11:32:02.419Z,7.20
2019-06-27T11:34:35.179Z,7.80
2019-06-27T11:37:08.345Z,8.87
2019-06-27T11:39:40.546Z,3.43
2019-06-27T11:42:09.496Z,4.73
2019-06-27T11:44:38.564Z,9.67
2019-06-27T11:47:08.591Z,4.07
2019-06-27T11:49:37.590Z,6.70
2019-06-27T11:52:08.353Z,6.17
2019-06-27T11:54:37.393Z,5.30
2019-06-27T11:57:06.372Z,3.07
2019-06-27T11:59:35.417Z,6.13
2019-06-27T12:02:05.872Z,4.10
2019-06-27T12:04:34.890Z,4.07
2019-06-27T12:07:03.838Z,6.10
2019-06-27T12:09:32.766Z,2.43
2019-06-27T12:12:01.666Z,3.37
2019-06-27T12:14:30.590Z,4.80
2019-06-27T12:16:59.589Z,7.30
2019-06-27T12:19:28.532Z,1.97
2019-06-27T12:21:59.323Z,4.20
2019-06-27T12:24:28.460Z,2.73
2019-06-27T12:26:57.346Z,3.07
2019-06-27T12:29:26.431Z,3.30
2019-06-27T12:31:56.832Z,3.80
2019-06-27T12:34:25.901Z,2.17
2019-06-27T12:36:55.920Z,4.40
2019-06-27T12:39:24.807Z,8.83
2019-06-27T12:41:55.236Z,4.43
2019-06-27T12:44:30.209Z,4.13
2019-06-27T12:47:00.753Z,3.73
2019-06-27T12:49:49.717Z,5.20
2019-06-27T12:52:01.645Z,4.70
2019-06-27T12:54:30.715Z,2.17
2019-06-27T12:57:02.788Z,3.60
2019-06-27T12:59:31.869Z,5.07
2019-06-27T13:02:00.851Z,2.83
2019-06-27T13:04:29.840Z,3.33
2019-06-27T13:06:58.948Z,3.27
2019-06-27T13:09:30.846Z,4.07
2019-06-27T13:11:59.840Z,5.10
2019-06-27T13:14:28.968Z,4.50
2019-06-27T13:16:58.120Z,6.40
2019-06-27T13:19:31.646Z,2.83
2019-06-27T13:22:00.869Z,3.70
2019-06-27T13:24:29.904Z,4.13
2019-06-27T13:26:59.981Z,3.10
2019-06-27T13:29:32.017Z,3.27
2019-06-27T13:32:03.032Z,4.37
2019-06-27T13:34:40.298Z,3.67
2019-06-27T13:37:07.950Z,5.67
2019-06-27T13:39:40.174Z,2.93
2019-06-27T13:42:09.265Z,3.90
2019-06-27T13:44:40.388Z,3.37
2019-06-27T13:47:09.509Z,4.13
2019-06-27T13:49:45.019Z,6.53
2019-06-27T13:52:12.338Z,3.63
2019-06-27T13:54:41.222Z,2.93
2019-06-27T13:57:12.525Z,3.03
2019-06-27T13:59:41.600Z,6.87
2019-06-27T14:02:10.470Z,2.10
2019-06-27T14:04:55.804Z,5.53
2019-06-27T14:07:09.997Z,6.30
2019-06-27T14:09:52.229Z,4.03
2019-06-27T14:12:10.429Z,8.40
2019-06-27T14:14:39.581Z,1.87
2019-06-27T14:17:11.541Z,8.33
2019-06-27T14:19:40.803Z,2.20
2019-06-27T14:22:29.231Z,4.27
2019-06-27T14:24:47.156Z,5.83
2019-06-27T14:27:16.118Z,7.30
2019-06-27T14:29:45.502Z,4.60
2019-06-27T14:32:14.626Z,4.83
2019-06-27T14:34:44.676Z,11.30
2019-06-27T14:37:13.570Z,6.47
2019-06-27T14:39:45.721Z,5.23
2019-06-27T14:42:14.762Z,4.20
2019-06-27T14:44:46.449Z,4.67
2019-06-27T14:47:19.916Z,3.83
2019-06-27T14:49:49.191Z,3.97
2019-06-27T14:52:19.489Z,4.13
2019-06-27T14:54:48.467Z,5.03
2019-06-27T14:57:22.900Z,5.13
2019-06-27T14:59:52.022Z,7.13
2019-06-27T15:02:22.307Z,5.07
2019-06-27T15:04:51.197Z,3.30
2019-06-27T15:07:21.620Z,3.97
2019-06-27T15:09:50.599Z,2.87
2019-06-27T15:12:28.250Z,5.37
2019-06-27T15:14:56.950Z,5.03
2019-06-27T15:17:25.941Z,3.97
2019-06-27T15:19:59.489Z,4.27
2019-06-27T15:22:28.926Z,5.70
2019-06-27T15:24:57.817Z,8.10
2019-06-27T15:27:26.892Z,6.67
2019-06-27T15:29:55.911Z,3.87
2019-06-27T15:32:26.044Z,7.13
2019-06-27T15:34:58.167Z,3.63
2019-06-27T15:37:27.190Z,4.60
2019-06-27T15:39:56.112Z,4.70
2019-06-27T15:42:26.200Z,6.13
2019-06-27T15:44:55.441Z,7.37
2019-06-27T15:47:27.506Z,3.70
2019-06-27T15:49:57.542Z,7.07
2019-06-27T15:52:26.689Z,2.50
2019-06-27T15:54:55.780Z,3.40
2019-06-27T15:57:24.954Z,4.23
2019-06-27T15:59:57.321Z,2.80
2019-06-27T16:02:30.100Z,3.47
2019-06-27T16:04:59.075Z,4.60
2019-06-27T16:07:28.455Z,4.17
2019-06-27T16:09:57.474Z,3.73
2019-06-27T16:12:26.587Z,5.67
2019-06-27T16:14:56.651Z,4.13
2019-06-27T16:17:27.898Z,3.67
2019-06-27T16:19:56.806Z,5.60
2019-06-27T16:22:28.778Z,6.07
2019-06-27T16:25:00.372Z,4.17
2019-06-27T16:27:29.369Z,8.10
2019-06-27T16:30:01.492Z,3.60
2019-06-27T16:32:31.652Z,5.23
2019-06-27T16:35:02.193Z,4.07
2019-06-27T16:37:32.596Z,4.27
2019-06-27T16:40:04.128Z,3.90
2019-06-27T16:42:38.230Z,5.00
2019-06-27T16:45:10.667Z,4.33
2019-06-27T16:47:42.973Z,6.23
2019-06-27T16:50:12.153Z,4.77
2019-06-27T16:52:41.177Z,6.63
2019-06-27T16:55:11.634Z,10.43
2019-06-27T16:57:40.780Z,2.80
2019-06-27T17:00:09.910Z,6.30
2019-06-27T17:02:40.119Z,3.97
2019-06-27T17:05:09.467Z,2.70
2019-06-27T17:07:38.689Z,8.10
2019-06-27T17:10:07.747Z,10.37
2019-06-27T17:12:39.242Z,4.57
2019-06-27T17:15:11.370Z,4.50
2019-06-27T17:17:40.544Z,5.53
2019-06-27T17:20:09.871Z,7.20
2019-06-27T17:22:38.860Z,4.67
2019-06-27T17:25:08.303Z,6.90
2019-06-27T17:27:37.309Z,5.90
2019-06-27T17:30:06.877Z,5.93
2019-06-27T17:32:36.243Z,8.57
2019-06-27T17:35:05.196Z,6.33
2019-06-27T17:37:38.919Z,6.73
2019-06-27T17:40:10.104Z,6.57
2019-06-27T17:42:39.502Z,4.30
2019-06-27T17:45:08.585Z,6.37
2019-06-27T17:47:37.547Z,9.27
2019-06-27T17:50:06.810Z,8.47
2019-06-27T17:52:35.700Z,4.97
2019-06-27T17:55:04.761Z,5.43
2019-06-27T17:57:40.360Z,7.93
2019-06-27T18:00:10.632Z,11.97
2019-06-27T18:02:46.889Z,8.23
2019-06-27T18:05:18.267Z,5.47
2019-06-27T18:07:46.790Z,7.07
2019-06-27T18:10:15.985Z,8.03
2019-06-27T18:12:45.072Z,6.40
2019-06-27T18:15:15.265Z,4.27
2019-06-27T18:17:44.241Z,7.73
2019-06-27T18:20:14.508Z,7.63
2019-06-27T18:22:43.871Z,7.73
2019-06-27T18:25:16.318Z,7.00
2019-06-27T18:27:45.504Z,9.87
2019-06-27T18:30:18.779Z,5.23
2019-06-27T18:32:49.725Z,8.50
2019-06-27T18:35:20.210Z,10.60
2019-06-27T18:37:49.209Z,5.00
2019-06-27T18:40:24.747Z,11.50
2019-06-27T18:42:53.833Z,8.27
2019-06-27T18:45:23.153Z,8.40
2019-06-27T18:47:52.231Z,5.07
2019-06-27T18:50:21.335Z,8.23
2019-06-27T18:52:50.291Z,10.53
2019-06-27T18:55:20.460Z,13.07
2019-06-27T18:57:49.505Z,9.37
2019-06-27T19:00:18.560Z,11.03
2019-06-27T19:02:47.821Z,8.80
2019-06-27T19:05:16.900Z,7.93
2019-06-27T19:07:46.458Z,9.10
2019-06-27T19:10:15.990Z,10.73
2019-06-27T19:12:45.264Z,9.10
2019-06-27T19:15:14.363Z,6.50
2019-06-27T19:17:43.844Z,7.40
2019-06-27T19:20:29.856Z,9.30
2019-06-27T19:23:21.053Z,14.00
2019-06-27T19:25:51.156Z,12.53
2019-06-27T19:28:20.272Z,8.20
2019-06-27T19:30:49.420Z,10.97
2019-06-27T19:33:18.334Z,10.50
2019-06-27T19:35:52.138Z,9.07
2019-06-27T19:38:21.472Z,8.37
2019-06-27T19:40:50.529Z,7.70
2019-06-27T19:43:27.779Z,11.17
2019-06-27T19:45:52.424Z,8.20
2019-06-27T19:48:24.306Z,6.77
2019-06-27T19:50:55.019Z,9.70
2019-06-27T19:53:24.051Z,8.70
2019-06-27T19:55:53.055Z,15.33
2019-06-27T19:58:22.094Z,29.47
2019-06-27T20:00:51.397Z,21.77
2019-06-27T20:03:25.718Z,14.67
2019-06-27T20:05:54.898Z,14.97
2019-06-27T20:08:24.210Z,12.93
2019-06-27T20:10:53.899Z,14.40
2019-06-27T20:13:22.892Z,8.53
2019-06-27T20:15:55.384Z,10.77
2019-06-27T20:18:26.271Z,6.97
2019-06-27T20:20:59.416Z,13.40
2019-06-27T20:23:30.790Z,6.57
2019-06-27T20:26:03.663Z,8.07
2019-06-27T20:28:33.846Z,5.67
2019-06-27T20:31:03.159Z,6.60
2019-06-27T20:33:36.091Z,6.67
2019-06-27T20:36:05.201Z,5.43
2019-06-27T20:38:35.383Z,8.43
2019-06-27T20:41:05.706Z,9.13
2019-06-27T20:43:34.858Z,6.43
2019-06-27T20:46:05.266Z,7.73
2019-06-27T20:48:34.540Z,10.47
2019-06-27T20:51:04.037Z,8.17
2019-06-27T20:53:35.707Z,11.27
2019-06-27T20:56:05.750Z,10.13
2019-06-27T20:58:39.556Z,7.00
2019-06-27T21:01:08.676Z,11.97
2019-06-27T21:03:39.100Z,8.63
2019-06-27T21:06:08.105Z,9.73
2019-06-27T21:08:50.305Z,7.93
2019-06-27T21:11:08.778Z,9.03
2019-06-27T21:13:38.244Z,9.37
2019-06-27T21:16:10.317Z,7.30
2019-06-27T21:18:39.215Z,9.07
2019-06-27T21:21:08.158Z,11.77
2019-06-27T21:23:37.070Z,9.13
2019-06-27T21:26:09.296Z,13.67
2019-06-27T21:28:39.171Z,7.63
2019-06-27T21:31:08.128Z,9.97
2019-06-27T21:33:37.038Z,9.07
2019-06-27T21:36:10.007Z,12.17
2019-06-27T21:38:42.084Z,9.70
2019-06-27T21:41:11.137Z,11.97
2019-06-27T21:43:40.217Z,7.53
2019-06-27T21:46:12.486Z,11.97
2019-06-27T21:48:44.676Z,11.60
2019-06-27T21:51:13.790Z,10.20
2019-06-27T21:53:46.117Z,10.50
2019-06-27T21:56:15.173Z,10.23
2019-06-27T21:58:44.117Z,13.63
2019-06-27T22:01:13.491Z,5.90
2019-06-27T22:03:43.813Z,9.23
2019-06-27T22:06:12.851Z,10.43
2019-06-27T22:08:41.745Z,7.33
2019-06-27T22:11:11.970Z,11.83
2019-06-27T22:13:41.001Z,11.13
2019-06-27T22:16:11.369Z,9.03
2019-06-27T22:18:40.438Z,8.90
2019-06-27T22:21:09.460Z,9.37
2019-06-27T22:24:00.553Z,10.70
2019-06-27T22:26:29.483Z,10.83
2019-06-27T22:29:00.232Z,9.03
2019-06-27T22:31:30.004Z,8.83
2019-06-27T22:34:03.450Z,6.87
2019-06-27T22:36:32.450Z,7.83
2019-06-27T22:39:19.174Z,9.23
2019-06-27T22:42:09.037Z,14.13
2019-06-27T22:44:56.087Z,12.03
2019-06-27T22:47:43.181Z,9.63
2019-06-27T22:50:29.220Z,9.10
2019-06-27T22:53:06.301Z,10.90
2019-06-27T22:55:36.485Z,8.57
2019-06-27T22:58:05.575Z,13.33
2019-06-27T23:00:34.551Z,11.20
2019-06-27T23:03:03.582Z,11.07
2019-06-27T23:05:32.886Z,8.73
2019-06-27T23:08:02.018Z,13.33
2019-06-27T23:10:30.963Z,10.50
2019-06-27T23:12:59.868Z,10.87
2019-06-27T23:15:28.843Z,10.20
2019-06-27T23:17:57.900Z,13.80
2019-06-27T23:20:26.807Z,8.70
2019-06-27T23:22:55.769Z,13.00
2019-06-27T23:25:26.106Z,13.03
2019-06-27T23:27:54.996Z,10.73
2019-06-27T23:30:23.931Z,12.40
2019-06-27T23:32:53.991Z,9.80
2019-06-27T23:35:22.859Z,11.80
2019-06-27T23:37:54.142Z,8.20
2019-06-27T23:40:22.687Z,9.17
2019-06-27T23:42:51.710Z,11.77
2019-06-27T23:45:20.712Z,9.17
2019-06-27T23:47:56.023Z,11.83
2019-06-27T23:50:24.944Z,12.23
2019-06-27T23:52:58.123Z,13.60
2019-06-27T23:55:27.102Z,12.93
2019-06-27T23:57:57.775Z,9.10
